createdAt,value
2018-12-30T00:00:42.451Z,8.07
2018-12-30T00:03:11.380Z,6.70
2018-12-30T00:05:40.328Z,6.53
2018-12-30T00:08:08.951Z,5.67
2018-12-30T00:10:37.499Z,6.03
2018-12-30T00:13:06.212Z,7.00
2018-12-30T00:15:35.972Z,7.27
2018-12-30T00:18:04.978Z,7.23
2018-12-30T00:20:34.215Z,8.17
2018-12-30T00:23:02.750Z,6.00
2018-12-30T00:25:31.326Z,7.13
2018-12-30T00:28:00.256Z,6.90
2018-12-30T00:30:28.816Z,6.73
2018-12-30T00:32:57.291Z,7.30
2018-12-30T00:35:26.113Z,6.60
2018-12-30T00:37:54.725Z,6.80
2018-12-30T00:40:23.733Z,7.00
2018-12-30T00:42:52.257Z,6.93
2018-12-30T00:45:20.871Z,7.27
2018-12-30T00:47:49.435Z,8.33
2018-12-30T00:50:18.440Z,7.27
2018-12-30T00:52:47.045Z,6.07
2018-12-30T00:55:15.586Z,6.60
2018-12-30T00:57:44.376Z,6.97
2018-12-30T01:00:13.061Z,6.57
2018-12-30T01:02:41.695Z,6.33
2018-12-30T01:05:10.553Z,7.37
2018-12-30T01:07:39.426Z,7.93
2018-12-30T01:10:09.308Z,6.23
2018-12-30T01:12:37.990Z,5.73
2018-12-30T01:15:06.784Z,5.60
2018-12-30T01:17:35.260Z,5.40
2018-12-30T01:20:04.389Z,6.50
2018-12-30T01:22:33.091Z,7.17
2018-12-30T01:25:01.636Z,7.03
2018-12-30T01:27:30.382Z,6.93
2018-12-30T01:29:58.942Z,6.10
2018-12-30T01:32:27.492Z,5.83
2018-12-30T01:34:56.814Z,6.90
2018-12-30T01:37:25.432Z,6.27
2018-12-30T01:39:53.989Z,6.93
2018-12-30T01:42:22.786Z,6.90
2018-12-30T01:44:51.330Z,6.63
2018-12-30T01:47:19.962Z,6.63
2018-12-30T01:49:48.505Z,6.43
2018-12-30T01:52:16.976Z,7.63
2018-12-30T01:54:45.880Z,7.30
2018-12-30T01:57:14.500Z,7.60
2018-12-30T01:59:43.046Z,8.07
2018-12-30T02:02:11.707Z,8.30
2018-12-30T02:04:40.315Z,8.20
2018-12-30T02:07:08.861Z,8.70
2018-12-30T02:09:37.691Z,8.73
2018-12-30T02:12:06.307Z,8.80
2018-12-30T02:14:35.213Z,8.63
2018-12-30T02:17:03.776Z,8.07
2018-12-30T02:19:32.335Z,8.27
2018-12-30T02:22:01.225Z,9.00
2018-12-30T02:24:29.841Z,8.27
2018-12-30T02:26:58.340Z,9.00
2018-12-30T02:29:26.901Z,8.87
2018-12-30T02:31:55.521Z,6.97
2018-12-30T02:34:24.186Z,7.70
2018-12-30T02:36:52.661Z,6.27
2018-12-30T02:39:21.227Z,7.20
2018-12-30T02:41:49.840Z,6.67
2018-12-30T02:44:18.435Z,6.20
2018-12-30T02:46:47.051Z,6.33
2018-12-30T02:49:15.596Z,5.93
2018-12-30T02:51:50.183Z,5.57
2018-12-30T02:54:14.686Z,5.03
2018-12-30T02:56:43.578Z,4.73
2018-12-30T02:59:12.429Z,5.00
2018-12-30T03:01:40.981Z,5.43
2018-12-30T03:04:09.527Z,5.30
2018-12-30T03:06:38.170Z,4.13
2018-12-30T03:09:07.763Z,4.23
2018-12-30T03:11:36.304Z,4.90
2018-12-30T03:14:04.959Z,5.37
2018-12-30T03:16:33.951Z,4.50
2018-12-30T03:19:02.514Z,4.77
2018-12-30T03:21:31.008Z,5.03
2018-12-30T03:23:59.542Z,3.80
2018-12-30T03:26:28.470Z,4.53
2018-12-30T03:28:57.030Z,5.00
2018-12-30T03:31:25.641Z,4.90
2018-12-30T03:33:54.626Z,5.80
2018-12-30T03:36:23.167Z,5.47
2018-12-30T03:38:51.791Z,5.63
2018-12-30T03:41:20.538Z,5.63
2018-12-30T03:43:49.110Z,5.17
2018-12-30T03:46:17.673Z,4.97
2018-12-30T03:48:46.434Z,5.47
2018-12-30T03:51:15.063Z,4.97
2018-12-30T03:53:43.613Z,4.43
2018-12-30T03:56:12.551Z,4.77
2018-12-30T03:58:41.169Z,5.03
2018-12-30T04:01:09.786Z,4.40
2018-12-30T04:03:38.559Z,5.03
2018-12-30T04:06:07.187Z,5.20
2018-12-30T04:08:35.843Z,4.83
2018-12-30T04:11:04.699Z,5.10
2018-12-30T04:13:33.245Z,4.80
2018-12-30T04:16:01.865Z,5.07
2018-12-30T04:18:30.455Z,4.43
2018-12-30T04:20:59.014Z,5.10
2018-12-30T04:23:33.807Z,5.43
2018-12-30T04:26:02.470Z,5.50
2018-12-30T04:28:31.015Z,6.17
2018-12-30T04:30:59.567Z,7.27
2018-12-30T04:33:28.394Z,6.00
2018-12-30T04:35:57.016Z,6.23
2018-12-30T04:38:25.571Z,5.60
2018-12-30T04:40:54.549Z,5.97
2018-12-30T04:43:23.109Z,7.27
2018-12-30T04:45:51.650Z,6.87
2018-12-30T04:48:20.255Z,7.30
2018-12-30T04:50:48.865Z,6.20
2018-12-30T04:53:17.424Z,6.97
2018-12-30T04:55:46.362Z,8.80
2018-12-30T04:58:14.899Z,8.73
2018-12-30T05:00:43.516Z,7.70
2018-12-30T05:03:12.419Z,8.50
2018-12-30T05:05:40.913Z,9.53
2018-12-30T05:08:09.477Z,10.43
2018-12-30T05:10:38.376Z,9.87
2018-12-30T05:13:06.923Z,9.23
2018-12-30T05:15:35.521Z,9.10
2018-12-30T05:18:04.456Z,9.23
2018-12-30T05:20:33.089Z,9.60
2018-12-30T05:23:01.651Z,9.33
2018-12-30T05:25:30.491Z,9.33
2018-12-30T05:27:59.044Z,9.40
2018-12-30T05:30:27.679Z,11.07
2018-12-30T05:32:56.509Z,10.17
2018-12-30T05:35:25.127Z,10.93
2018-12-30T05:37:53.745Z,11.43
2018-12-30T05:40:22.609Z,12.17
2018-12-30T05:42:51.160Z,12.33
2018-12-30T05:45:23.923Z,10.20
2018-12-30T05:47:52.752Z,12.10
2018-12-30T05:50:21.372Z,10.90
2018-12-30T05:52:49.929Z,11.07
2018-12-30T05:55:18.457Z,11.87
2018-12-30T05:57:47.217Z,12.80
2018-12-30T06:00:15.837Z,13.73
2018-12-30T06:02:44.768Z,14.40
2018-12-30T06:05:13.319Z,15.53
2018-12-30T06:07:41.947Z,14.90
2018-12-30T06:10:10.835Z,15.83
2018-12-30T06:12:39.386Z,15.83
2018-12-30T06:15:08.032Z,15.47
2018-12-30T06:17:36.993Z,15.57
2018-12-30T06:20:05.816Z,15.73
2018-12-30T06:22:34.383Z,17.03
2018-12-30T06:25:03.039Z,16.90
2018-12-30T06:27:31.587Z,16.20
2018-12-30T06:30:00.166Z,16.40
2018-12-30T06:32:28.702Z,15.87
2018-12-30T06:34:57.333Z,15.43
2018-12-30T06:37:25.895Z,14.93
2018-12-30T06:39:54.737Z,14.55
2018-12-30T06:42:23.348Z,11.90
2018-12-30T06:44:51.849Z,9.20
2018-12-30T06:47:21.206Z,8.57
2018-12-30T06:49:49.818Z,9.60
2018-12-30T06:52:18.374Z,11.03
2018-12-30T06:54:51.567Z,11.67
2018-12-30T06:57:20.139Z,9.00
2018-12-30T06:59:48.757Z,7.63
2018-12-30T07:02:18.126Z,7.37
2018-12-30T07:04:46.674Z,8.13
2018-12-30T07:07:15.229Z,7.73
2018-12-30T07:09:44.085Z,7.47
2018-12-30T07:12:12.719Z,9.30
2018-12-30T07:14:41.198Z,10.33
2018-12-30T07:17:09.787Z,11.77
2018-12-30T07:19:38.417Z,11.20
2018-12-30T07:22:06.988Z,9.77
2018-12-30T07:24:35.782Z,9.53
2018-12-30T07:27:04.398Z,7.90
2018-12-30T07:29:32.941Z,6.97
2018-12-30T07:32:01.793Z,7.33
2018-12-30T07:34:30.420Z,7.73
2018-12-30T07:36:58.967Z,8.77
2018-12-30T07:39:27.565Z,8.90
2018-12-30T07:41:56.127Z,11.93
2018-12-30T07:44:24.748Z,16.27
2018-12-30T07:46:53.641Z,18.03
2018-12-30T07:49:22.198Z,17.30
2018-12-30T07:51:50.748Z,17.13
2018-12-30T07:54:19.436Z,14.65
2018-12-30T07:56:47.989Z,13.17
2018-12-30T07:59:16.473Z,13.53
2018-12-30T08:01:45.076Z,12.00
2018-12-30T08:04:13.707Z,11.63
2018-12-30T08:06:42.273Z,12.30
2018-12-30T08:09:11.208Z,12.70
2018-12-30T08:11:39.764Z,14.60
2018-12-30T08:14:08.329Z,15.03
2018-12-30T08:16:37.243Z,14.57
2018-12-30T08:19:05.876Z,14.33
2018-12-30T08:21:34.436Z,14.73
2018-12-30T08:24:03.109Z,13.17
2018-12-30T08:26:31.658Z,12.93
2018-12-30T08:29:00.303Z,11.33
2018-12-30T08:31:29.279Z,12.73
2018-12-30T08:33:57.849Z,14.47
2018-12-30T08:36:26.477Z,12.85
2018-12-30T08:38:55.414Z,13.70
2018-12-30T08:41:24.063Z,15.00
2018-12-30T08:43:52.645Z,87.30
2018-12-30T08:46:21.484Z,26.30
2018-12-30T08:48:49.970Z,10.97
2018-12-30T08:51:18.535Z,10.43
2018-12-30T08:53:47.417Z,6.10
2018-12-30T08:56:15.970Z,14.10
2018-12-30T08:58:44.471Z,8.30
2018-12-30T09:01:13.287Z,9.28
2018-12-30T09:03:41.910Z,9.27
2018-12-30T09:06:10.535Z,9.47
2018-12-30T09:08:39.335Z,8.40
2018-12-30T09:11:07.885Z,10.43
2018-12-30T09:13:36.514Z,11.43
2018-12-30T09:16:05.396Z,7.93
2018-12-30T09:18:33.879Z,9.30
2018-12-30T09:21:02.448Z,11.17
2018-12-30T09:23:37.260Z,10.13
2018-12-30T09:26:01.351Z,9.68
2018-12-30T09:28:33.308Z,8.37
2018-12-30T09:31:01.855Z,9.47
2018-12-30T09:33:30.342Z,9.93
2018-12-30T09:35:58.986Z,8.90
2018-12-30T09:38:27.731Z,10.43
2018-12-30T09:40:56.295Z,9.80
2018-12-30T09:43:25.130Z,10.77
2018-12-30T09:45:53.680Z,11.75
2018-12-30T09:48:22.304Z,12.37
2018-12-30T09:50:50.875Z,11.63
2018-12-30T09:53:19.689Z,10.23
2018-12-30T09:55:48.235Z,10.58
2018-12-30T09:58:16.860Z,11.48
2018-12-30T10:00:45.529Z,11.27
2018-12-30T10:03:14.097Z,12.63
2018-12-30T10:05:42.681Z,14.20
2018-12-30T10:08:11.267Z,14.67
2018-12-30T10:10:39.828Z,14.43
2018-12-30T10:13:08.449Z,12.67
2018-12-30T10:15:37.235Z,10.87
2018-12-30T10:18:05.716Z,8.35
2018-12-30T10:20:34.334Z,7.90
2018-12-30T10:23:03.224Z,7.47
2018-12-30T10:25:31.787Z,8.57
2018-12-30T10:28:00.343Z,11.47
2018-12-30T10:30:29.226Z,12.58
2018-12-30T10:32:57.862Z,9.68
2018-12-30T10:35:26.481Z,9.47
2018-12-30T10:37:55.281Z,10.60
2018-12-30T10:40:23.833Z,11.23
2018-12-30T10:42:52.621Z,12.18
2018-12-30T10:45:21.456Z,10.57
2018-12-30T10:47:49.953Z,9.83
2018-12-30T10:50:18.588Z,9.40
2018-12-30T10:52:47.515Z,11.03
2018-12-30T10:55:16.097Z,11.30
2018-12-30T10:57:44.586Z,15.98
2018-12-30T11:00:13.562Z,15.70
2018-12-30T11:02:42.208Z,15.00
2018-12-30T11:05:10.827Z,16.57
2018-12-30T11:07:39.633Z,16.90
2018-12-30T11:10:08.356Z,17.03
2018-12-30T11:12:36.991Z,13.50
2018-12-30T11:15:06.344Z,12.78
2018-12-30T11:17:34.902Z,15.27
2018-12-30T11:20:03.529Z,13.68
2018-12-30T11:22:32.365Z,14.80
2018-12-30T11:25:00.909Z,13.98
2018-12-30T11:27:29.539Z,11.90
2018-12-30T11:29:58.223Z,11.27
2018-12-30T11:32:27.064Z,10.67
2018-12-30T11:34:55.619Z,9.90
2018-12-30T11:37:24.339Z,8.48
2018-12-30T11:39:52.971Z,9.70
2018-12-30T11:42:21.450Z,8.90
2018-12-30T11:44:50.304Z,10.53
2018-12-30T11:47:18.957Z,11.40
2018-12-30T11:49:47.585Z,11.35
2018-12-30T11:52:16.351Z,11.97
2018-12-30T11:54:44.909Z,11.17
2018-12-30T11:57:13.533Z,12.07
2018-12-30T11:59:42.220Z,10.43
2018-12-30T12:02:10.783Z,11.20
2018-12-30T12:04:39.334Z,11.50
2018-12-30T12:07:08.060Z,10.77
2018-12-30T12:09:36.626Z,11.77
2018-12-30T12:12:05.365Z,12.30
2018-12-30T12:14:34.221Z,11.80
2018-12-30T12:17:02.781Z,10.77
2018-12-30T12:19:31.351Z,12.67
2018-12-30T12:22:00.017Z,12.97
2018-12-30T12:24:28.591Z,13.65
2018-12-30T12:26:57.136Z,11.30
2018-12-30T12:29:26.026Z,10.90
2018-12-30T12:31:54.652Z,10.60
2018-12-30T12:34:23.222Z,10.18
2018-12-30T12:36:51.973Z,11.23
2018-12-30T12:39:20.524Z,10.67
2018-12-30T12:41:49.091Z,9.60
2018-12-30T12:44:18.033Z,10.67
2018-12-30T12:46:46.653Z,11.13
2018-12-30T12:49:15.297Z,11.00
2018-12-30T12:51:44.179Z,10.07
2018-12-30T12:54:12.737Z,11.08
2018-12-30T12:56:41.362Z,12.58
2018-12-30T12:59:10.120Z,10.38
2018-12-30T13:01:39.345Z,10.53
2018-12-30T13:04:07.966Z,19.12
2018-12-30T13:06:36.808Z,13.47
2018-12-30T13:09:06.652Z,15.70
2018-12-30T13:11:35.146Z,15.10
2018-12-30T13:14:03.998Z,17.25
2018-12-30T13:16:32.620Z,10.95
2018-12-30T13:19:01.196Z,12.23
2018-12-30T13:21:29.806Z,11.97
2018-12-30T13:23:58.357Z,10.23
2018-12-30T13:26:26.980Z,10.57
2018-12-30T13:28:55.721Z,11.50
2018-12-30T13:31:24.458Z,10.23
2018-12-30T13:33:53.027Z,15.63
2018-12-30T13:36:21.887Z,12.77
2018-12-30T13:38:50.510Z,13.77
2018-12-30T13:41:19.135Z,12.23
2018-12-30T13:43:47.795Z,9.47
2018-12-30T13:46:16.287Z,10.30
2018-12-30T13:48:44.837Z,11.27
2018-12-30T13:51:13.503Z,12.23
2018-12-30T13:53:42.140Z,10.20
2018-12-30T13:56:10.615Z,9.33
2018-12-30T13:58:39.504Z,9.60
2018-12-30T14:01:09.152Z,11.23
2018-12-30T14:03:37.788Z,11.60
2018-12-30T14:06:06.910Z,13.62
2018-12-30T14:08:35.410Z,15.10
2018-12-30T14:11:03.960Z,14.00
2018-12-30T14:13:32.974Z,16.80
2018-12-30T14:16:01.599Z,26.93
2018-12-30T14:18:30.157Z,20.17
2018-12-30T14:20:59.015Z,20.80
2018-12-30T14:23:27.634Z,20.60
2018-12-30T14:25:56.270Z,21.67
2018-12-30T14:28:24.859Z,17.47
2018-12-30T14:30:53.355Z,19.70
2018-12-30T14:33:21.993Z,20.20
2018-12-30T14:35:50.920Z,22.57
2018-12-30T14:38:19.491Z,23.10
2018-12-30T14:40:48.124Z,24.83
2018-12-30T14:43:16.693Z,23.67
2018-12-30T14:45:45.317Z,24.30
2018-12-30T14:48:13.961Z,21.20
2018-12-30T14:50:42.829Z,23.87
2018-12-30T14:53:19.088Z,23.23
2018-12-30T14:55:41.572Z,26.37
2018-12-30T14:58:10.240Z,28.60
2018-12-30T15:00:38.861Z,27.63
2018-12-30T15:03:07.463Z,24.73
2018-12-30T15:05:36.372Z,26.10
2018-12-30T15:08:05.021Z,24.90
2018-12-30T15:10:33.654Z,21.80
2018-12-30T15:13:02.236Z,23.43
2018-12-30T15:15:30.825Z,24.57
2018-12-30T15:17:59.446Z,22.13
2018-12-30T15:20:28.033Z,21.13
2018-12-30T15:22:56.660Z,18.07
2018-12-30T15:25:25.276Z,20.13
2018-12-30T15:27:54.166Z,19.20
2018-12-30T15:30:22.642Z,16.47
2018-12-30T15:32:51.274Z,16.87
2018-12-30T15:35:19.976Z,14.50
2018-12-30T15:37:48.634Z,14.77
2018-12-30T15:40:17.138Z,17.80
2018-12-30T15:42:45.792Z,19.57
2018-12-30T15:45:14.428Z,19.70
2018-12-30T15:47:43.060Z,18.30
2018-12-30T15:50:11.728Z,20.30
2018-12-30T15:52:40.382Z,21.83
2018-12-30T15:55:09.131Z,21.00
2018-12-30T15:57:37.948Z,22.87
2018-12-30T16:00:08.868Z,22.23
2018-12-30T16:02:37.544Z,23.33
2018-12-30T16:05:06.465Z,24.87
2018-12-30T16:07:34.954Z,25.53
2018-12-30T16:10:04.585Z,25.33
2018-12-30T16:12:33.650Z,30.63
2018-12-30T16:15:02.279Z,33.60
2018-12-30T16:17:30.829Z,33.07
2018-12-30T16:19:59.512Z,32.37
2018-12-30T16:22:28.146Z,26.93
2018-12-30T16:24:56.777Z,24.57
2018-12-30T16:27:25.295Z,22.70
2018-12-30T16:29:53.848Z,20.60
2018-12-30T16:32:22.484Z,24.47
2018-12-30T16:34:51.430Z,28.93
2018-12-30T16:37:19.985Z,24.80
2018-12-30T16:39:48.620Z,25.83
2018-12-30T16:42:17.452Z,25.27
2018-12-30T16:44:45.954Z,25.08
2018-12-30T16:47:14.582Z,25.50
2018-12-30T16:49:43.504Z,25.43
2018-12-30T16:52:11.998Z,26.53
2018-12-30T16:54:40.628Z,27.23
2018-12-30T16:57:09.600Z,29.63
2018-12-30T16:59:38.219Z,27.23
2018-12-30T17:02:06.788Z,27.07
2018-12-30T17:04:35.516Z,27.27
2018-12-30T17:07:04.138Z,24.73
2018-12-30T17:09:32.868Z,25.87
2018-12-30T17:12:01.402Z,27.73
2018-12-30T17:14:29.885Z,27.60
2018-12-30T17:16:59.632Z,26.97
2018-12-30T17:19:28.396Z,26.57
2018-12-30T17:21:57.024Z,29.20
2018-12-30T17:24:25.727Z,37.43
2018-12-30T17:26:54.461Z,40.70
2018-12-30T17:29:23.160Z,45.17
2018-12-30T17:31:51.839Z,44.53
2018-12-30T17:34:20.756Z,47.20
2018-12-30T17:36:49.312Z,43.40
2018-12-30T17:39:17.807Z,41.50
2018-12-30T17:41:46.712Z,41.40
2018-12-30T17:44:15.333Z,43.10
2018-12-30T17:46:43.816Z,42.77
2018-12-30T17:49:12.665Z,43.73
2018-12-30T17:51:41.302Z,45.83
2018-12-30T17:54:15.132Z,46.93
2018-12-30T17:56:40.448Z,51.53
2018-12-30T17:59:09.068Z,51.73
2018-12-30T18:01:37.639Z,49.40
2018-12-30T18:04:06.523Z,53.00
2018-12-30T18:06:35.148Z,52.67
2018-12-30T18:09:04.426Z,59.67
2018-12-30T18:11:32.972Z,61.53
2018-12-30T18:14:01.466Z,62.70
2018-12-30T18:16:30.112Z,64.27
2018-12-30T18:18:59.055Z,62.87
2018-12-30T18:21:27.539Z,63.37
2018-12-30T18:23:56.103Z,62.03
2018-12-30T18:26:24.999Z,57.73
2018-12-30T18:28:53.705Z,61.40
2018-12-30T18:31:22.270Z,59.57
2018-12-30T18:33:50.923Z,57.77
2018-12-30T18:36:19.559Z,48.97
2018-12-30T18:38:48.180Z,48.87
2018-12-30T18:41:16.927Z,49.83
2018-12-30T18:43:45.487Z,47.80
2018-12-30T18:46:14.130Z,50.27
2018-12-30T18:48:43.066Z,57.97
2018-12-30T18:51:11.711Z,64.07
2018-12-30T18:53:40.274Z,60.53
2018-12-30T18:56:09.057Z,58.67
2018-12-30T18:58:37.692Z,59.17
2018-12-30T19:01:06.315Z,55.63
2018-12-30T19:03:35.172Z,57.77
2018-12-30T19:06:03.799Z,54.30
2018-12-30T19:08:32.431Z,53.60
2018-12-30T19:11:01.334Z,52.60
2018-12-30T19:13:29.826Z,51.53
2018-12-30T19:15:58.448Z,46.60
2018-12-30T19:18:27.192Z,49.30
2018-12-30T19:20:55.825Z,51.23
2018-12-30T19:23:24.539Z,55.37
2018-12-30T19:26:00.880Z,50.47
2018-12-30T19:28:23.649Z,50.17
2018-12-30T19:30:52.284Z,46.50
2018-12-30T19:33:20.962Z,46.23
2018-12-30T19:35:49.441Z,48.53
2018-12-30T19:38:17.932Z,48.57
2018-12-30T19:40:46.899Z,49.13
2018-12-30T19:43:15.533Z,50.70
2018-12-30T19:45:44.017Z,50.67
2018-12-30T19:48:12.859Z,47.27
2018-12-30T19:50:41.502Z,50.30
2018-12-30T19:53:10.120Z,44.90
2018-12-30T19:55:38.767Z,40.67
2018-12-30T19:58:07.396Z,38.83
2018-12-30T20:00:36.018Z,38.20
2018-12-30T20:03:04.882Z,33.97
2018-12-30T20:05:33.516Z,33.03
2018-12-30T20:08:02.192Z,31.10
2018-12-30T20:10:38.223Z,31.13
2018-12-30T20:13:09.075Z,30.27
2018-12-30T20:15:37.104Z,31.03
2018-12-30T20:18:05.727Z,30.27
2018-12-30T20:20:34.345Z,25.97
2018-12-30T20:23:02.921Z,17.43
2018-12-30T20:25:31.546Z,16.80
2018-12-30T20:28:00.170Z,12.90
2018-12-30T20:30:28.663Z,14.70
2018-12-30T20:32:57.143Z,13.13
2018-12-30T20:35:25.809Z,13.53
2018-12-30T20:37:54.313Z,14.60
2018-12-30T20:40:22.933Z,13.50
2018-12-30T20:42:51.610Z,14.70
2018-12-30T20:45:20.090Z,16.23
2018-12-30T20:47:48.643Z,17.30
2018-12-30T20:50:17.569Z,17.20
2018-12-30T20:52:46.314Z,20.70
2018-12-30T20:55:14.812Z,23.77
2018-12-30T20:57:43.641Z,24.47
2018-12-30T21:00:12.737Z,27.60
2018-12-30T21:02:41.361Z,36.17
2018-12-30T21:05:10.187Z,35.40
2018-12-30T21:07:38.734Z,38.20
2018-12-30T21:10:08.179Z,44.23
2018-12-30T21:12:36.850Z,33.47
2018-12-30T21:15:06.516Z,35.83
2018-12-30T21:17:35.007Z,40.00
2018-12-30T21:20:03.919Z,40.57
2018-12-30T21:22:32.561Z,36.23
2018-12-30T21:25:01.052Z,29.03
2018-12-30T21:27:29.808Z,28.93
2018-12-30T21:29:58.428Z,28.67
2018-12-30T21:32:27.116Z,27.07
2018-12-30T21:34:55.850Z,24.73
2018-12-30T21:37:24.340Z,22.03
2018-12-30T21:39:53.037Z,19.10
2018-12-30T21:42:21.984Z,17.70
2018-12-30T21:44:50.478Z,17.70
2018-12-30T21:47:18.963Z,20.00
2018-12-30T21:49:47.632Z,19.77
2018-12-30T21:52:16.267Z,20.73
2018-12-30T21:54:44.828Z,21.93
2018-12-30T21:57:13.691Z,20.37
2018-12-30T21:59:42.171Z,20.33
2018-12-30T22:02:10.724Z,20.90
2018-12-30T22:04:39.535Z,21.50
2018-12-30T22:07:08.154Z,20.37
2018-12-30T22:09:36.648Z,21.90
2018-12-30T22:12:05.562Z,22.70
2018-12-30T22:14:34.194Z,21.40
2018-12-30T22:17:02.814Z,25.67
2018-12-30T22:19:31.659Z,24.80
2018-12-30T22:22:00.161Z,22.97
2018-12-30T22:24:28.795Z,23.63
2018-12-30T22:26:57.812Z,27.27
2018-12-30T22:29:26.365Z,20.73
2018-12-30T22:31:54.920Z,25.07
2018-12-30T22:34:23.872Z,33.63
2018-12-30T22:36:52.364Z,33.93
2018-12-30T22:39:20.997Z,29.43
2018-12-30T22:41:49.944Z,29.63
2018-12-30T22:44:18.422Z,29.23
2018-12-30T22:46:46.986Z,28.20
2018-12-30T22:49:15.619Z,22.33
2018-12-30T22:51:44.244Z,22.10
2018-12-30T22:54:13.041Z,23.30
2018-12-30T22:56:41.598Z,21.13
2018-12-30T22:59:10.225Z,21.37
2018-12-30T23:01:39.211Z,23.27
2018-12-30T23:04:07.710Z,21.40
2018-12-30T23:06:36.248Z,21.23
2018-12-30T23:09:06.896Z,21.10
2018-12-30T23:11:35.511Z,20.20
2018-12-30T23:14:04.080Z,20.90
2018-12-30T23:16:32.743Z,21.73
2018-12-30T23:19:01.232Z,18.03
2018-12-30T23:21:29.781Z,18.57
2018-12-30T23:23:58.705Z,18.50
2018-12-30T23:26:27.336Z,14.17
2018-12-30T23:28:55.841Z,14.50
2018-12-30T23:31:24.795Z,12.87
2018-12-30T23:33:53.408Z,13.70
2018-12-30T23:36:22.043Z,13.03
2018-12-30T23:38:50.599Z,13.80
2018-12-30T23:41:19.163Z,13.67
2018-12-30T23:43:48.083Z,13.33
2018-12-30T23:46:16.720Z,15.37
2018-12-30T23:48:45.272Z,15.33
2018-12-30T23:51:14.137Z,15.70
2018-12-30T23:53:42.767Z,16.27
2018-12-30T23:56:11.261Z,15.27
2018-12-30T23:58:40.201Z,14.00
